sensor_id;sensor_type;location;lat;lon;timestamp;pressure;altitude;pressure_sealevel;temperature;humidity
38466;BME280;24244;51.950;5.902;2023-04-27T00:02:10;102021.41;;;6.25;63.14
38466;BME280;24244;51.950;5.902;2023-04-27T00:04:38;102019.97;;;6.21;63.10
38466;BME280;24244;51.950;5.902;2023-04-27T00:07:06;102019.63;;;6.14;63.46
38466;BME280;24244;51.950;5.902;2023-04-27T00:09:32;102020.72;;;6.12;63.45
38466;BME280;24244;51.950;5.902;2023-04-27T00:11:59;102023.34;;;6.12;63.42
38466;BME280;24244;51.950;5.902;2023-04-27T00:14:26;102022.50;;;6.11;63.33
38466;BME280;24244;51.950;5.902;2023-04-27T00:16:55;102029.75;;;6.09;63.72
38466;BME280;24244;51.950;5.902;2023-04-27T00:19:22;102030.81;;;6.07;63.53
38466;BME280;24244;51.950;5.902;2023-04-27T00:21:50;102040.66;;;6.05;63.59
38466;BME280;24244;51.950;5.902;2023-04-27T00:24:17;102033.72;;;6.04;63.95
38466;BME280;24244;51.950;5.902;2023-04-27T00:26:44;102036.50;;;6.02;63.53
38466;BME280;24244;51.950;5.902;2023-04-27T00:29:11;102038.53;;;5.99;63.78
38466;BME280;24244;51.950;5.902;2023-04-27T00:31:38;102037.13;;;5.95;63.88
38466;BME280;24244;51.950;5.902;2023-04-27T00:34:05;102029.56;;;5.90;63.85
38466;BME280;24244;51.950;5.902;2023-04-27T00:36:32;102034.97;;;5.88;63.95
38466;BME280;24244;51.950;5.902;2023-04-27T00:39:01;102034.97;;;5.88;63.99
38466;BME280;24244;51.950;5.902;2023-04-27T00:41:29;102037.63;;;5.88;63.92
38466;BME280;24244;51.950;5.902;2023-04-27T00:43:56;102038.66;;;5.86;63.99
38466;BME280;24244;51.950;5.902;2023-04-27T00:46:23;102030.97;;;5.83;64.03
38466;BME280;24244;51.950;5.902;2023-04-27T00:48:50;102035.44;;;5.82;63.96
38466;BME280;24244;51.950;5.902;2023-04-27T00:51:17;102033.28;;;5.76;63.97
38466;BME280;24244;51.950;5.902;2023-04-27T00:53:44;102031.13;;;5.70;64.52
38466;BME280;24244;51.950;5.902;2023-04-27T00:56:12;102029.13;;;5.63;64.41
38466;BME280;24244;51.950;5.902;2023-04-27T00:58:39;102033.19;;;5.56;64.61
38466;BME280;24244;51.950;5.902;2023-04-27T01:01:06;102031.91;;;5.50;64.58
38466;BME280;24244;51.950;5.902;2023-04-27T01:03:33;102032.16;;;5.47;64.70
38466;BME280;24244;51.950;5.902;2023-04-27T01:06:00;102040.31;;;5.44;64.93
38466;BME280;24244;51.950;5.902;2023-04-27T01:08:27;102040.31;;;5.44;65.07
38466;BME280;24244;51.950;5.902;2023-04-27T01:10:54;102041.38;;;5.41;64.69
38466;BME280;24244;51.950;5.902;2023-04-27T01:13:22;102042.69;;;5.36;64.73
38466;BME280;24244;51.950;5.902;2023-04-27T01:15:49;102038.66;;;5.32;64.90
38466;BME280;24244;51.950;5.902;2023-04-27T01:18:16;102031.06;;;5.27;65.26
38466;BME280;24244;51.950;5.902;2023-04-27T01:20:43;102024.28;;;5.25;65.33
38466;BME280;24244;51.950;5.902;2023-04-27T01:23:14;102024.50;;;5.22;65.00
38466;BME280;24244;51.950;5.902;2023-04-27T01:25:43;102032.66;;;5.19;65.11
38466;BME280;24244;51.950;5.902;2023-04-27T01:28:10;102024.88;;;5.17;65.15
38466;BME280;24244;51.950;5.902;2023-04-27T01:30:38;102030.97;;;5.18;65.27
38466;BME280;24244;51.950;5.902;2023-04-27T01:33:04;102032.66;;;5.19;65.44
38466;BME280;24244;51.950;5.902;2023-04-27T01:35:31;102030.97;;;5.18;65.12
38466;BME280;24244;51.950;5.902;2023-04-27T01:37:58;102040.78;;;5.16;65.34
38466;BME280;24244;51.950;5.902;2023-04-27T01:40:27;102030.47;;;5.12;65.19
38466;BME280;24244;51.950;5.902;2023-04-27T01:42:54;102039.47;;;5.10;65.37
38466;BME280;24244;51.950;5.902;2023-04-27T01:45:21;102038.75;;;5.08;65.27
38466;BME280;24244;51.950;5.902;2023-04-27T01:47:49;102033.59;;;5.06;65.62
38466;BME280;24244;51.950;5.902;2023-04-27T01:50:16;102036.34;;;5.05;65.41
38466;BME280;24244;51.950;5.902;2023-04-27T01:52:43;102033.97;;;5.02;65.48
38466;BME280;24244;51.950;5.902;2023-04-27T01:55:10;102029.88;;;4.98;65.50
38466;BME280;24244;51.950;5.902;2023-04-27T01:57:38;102026.66;;;4.94;65.81
38466;BME280;24244;51.950;5.902;2023-04-27T02:00:06;102028.66;;;4.91;65.89
38466;BME280;24244;51.950;5.902;2023-04-27T02:02:33;102025.44;;;4.87;65.85
38466;BME280;24244;51.950;5.902;2023-04-27T02:05:00;102023.03;;;4.84;65.81
38466;BME280;24244;51.950;5.902;2023-04-27T02:07:27;102022.44;;;4.81;65.96
38466;BME280;24244;51.950;5.902;2023-04-27T02:09:53;102018.34;;;4.77;66.05
38466;BME280;24244;51.950;5.902;2023-04-27T02:12:20;102011.66;;;4.72;66.20
38466;BME280;24244;51.950;5.902;2023-04-27T02:14:48;102011.88;;;4.69;66.13
38466;BME280;24244;51.950;5.902;2023-04-27T02:17:15;102018.25;;;4.67;66.16
38466;BME280;24244;51.950;5.902;2023-04-27T02:19:42;102016.78;;;4.63;66.03
38466;BME280;24244;51.950;5.902;2023-04-27T02:22:09;102015.34;;;4.59;66.11
38466;BME280;24244;51.950;5.902;2023-04-27T02:24:35;102012.09;;;4.55;66.58
38466;BME280;24244;51.950;5.902;2023-04-27T02:27:02;102013.19;;;4.53;66.54
38466;BME280;24244;51.950;5.902;2023-04-27T02:29:30;102015.09;;;4.51;66.65
38466;BME280;24244;51.950;5.902;2023-04-27T02:31:59;102025.84;;;4.48;66.55
38466;BME280;24244;51.950;5.902;2023-04-27T02:34:26;102019.97;;;4.44;66.61
38466;BME280;24244;51.950;5.902;2023-04-27T02:36:52;102021.03;;;4.42;66.58
38466;BME280;24244;51.950;5.902;2023-04-27T02:39:19;102017.72;;;4.40;67.03
38466;BME280;24244;51.950;5.902;2023-04-27T02:41:47;102023.06;;;4.38;67.01
38466;BME280;24244;51.950;5.902;2023-04-27T02:44:17;102021.41;;;4.37;66.97
38466;BME280;24244;51.950;5.902;2023-04-27T02:46:44;102018.88;;;4.36;67.04
38466;BME280;24244;51.950;5.902;2023-04-27T02:49:12;102020.78;;;4.33;66.67
38466;BME280;24244;51.950;5.902;2023-04-27T02:51:40;102023.53;;;4.32;67.04
38466;BME280;24244;51.950;5.902;2023-04-27T02:54:07;102019.34;;;4.29;67.00
38466;BME280;24244;51.950;5.902;2023-04-27T02:56:34;102015.97;;;4.27;66.81
38466;BME280;24244;51.950;5.902;2023-04-27T02:59:01;102011.78;;;4.25;67.16
38466;BME280;24244;51.950;5.902;2023-04-27T03:01:28;102019.81;;;4.23;67.12
38466;BME280;24244;51.950;5.902;2023-04-27T03:03:55;102010.22;;;4.22;66.93
38466;BME280;24244;51.950;5.902;2023-04-27T03:06:23;102012.84;;;4.22;67.21
38466;BME280;24244;51.950;5.902;2023-04-27T03:08:51;102011.41;;;4.18;67.27
38466;BME280;24244;51.950;5.902;2023-04-27T03:11:18;102002.78;;;4.16;67.11
38466;BME280;24244;51.950;5.902;2023-04-27T03:13:45;102006.59;;;4.12;67.37
38466;BME280;24244;51.950;5.902;2023-04-27T03:16:12;102016.50;;;4.09;67.19
38466;BME280;24244;51.950;5.902;2023-04-27T03:18:39;102027.25;;;4.06;67.42
38466;BME280;24244;51.950;5.902;2023-04-27T03:21:07;102022.22;;;4.03;67.29
38466;BME280;24244;51.950;5.902;2023-04-27T03:23:36;102028.44;;;4.02;67.18
38466;BME280;24244;51.950;5.902;2023-04-27T03:26:06;102018.13;;;3.99;67.38
38466;BME280;24244;51.950;5.902;2023-04-27T03:28:34;102022.78;;;3.95;67.60
38466;BME280;24244;51.950;5.902;2023-04-27T03:31:04;102023.75;;;3.94;67.62
38466;BME280;24244;51.950;5.902;2023-04-27T03:33:31;102029.72;;;3.96;67.43
38466;BME280;24244;51.950;5.902;2023-04-27T03:35:58;102022.78;;;3.95;67.61
38466;BME280;24244;51.950;5.902;2023-04-27T03:38:27;102032.69;;;3.91;67.56
38466;BME280;24244;51.950;5.902;2023-04-27T03:40:55;102028.50;;;3.89;67.68
38466;BME280;24244;51.950;5.902;2023-04-27T03:43:25;102033.88;;;3.87;67.83
38466;BME280;24244;51.950;5.902;2023-04-27T03:45:52;102033.75;;;3.89;67.41
38466;BME280;24244;51.950;5.902;2023-04-27T03:48:19;102033.88;;;3.87;68.05
38466;BME280;24244;51.950;5.902;2023-04-27T03:50:46;102040.91;;;3.87;68.01
38466;BME280;24244;51.950;5.902;2023-04-27T03:53:13;102045.56;;;3.83;67.74
38466;BME280;24244;51.950;5.902;2023-04-27T03:55:43;102046.72;;;3.79;67.77
38466;BME280;24244;51.950;5.902;2023-04-27T03:58:12;102044.44;;;3.75;67.75
38466;BME280;24244;51.950;5.902;2023-04-27T04:00:39;102046.69;;;3.68;67.74
38466;BME280;24244;51.950;5.902;2023-04-27T04:03:06;102046.88;;;3.65;68.04
38466;BME280;24244;51.950;5.902;2023-04-27T04:05:34;102045.31;;;3.63;67.78
38466;BME280;24244;51.950;5.902;2023-04-27T04:08:03;102051.53;;;3.62;67.99
38466;BME280;24244;51.950;5.902;2023-04-27T04:10:30;102047.22;;;3.61;68.21
38466;BME280;24244;51.950;5.902;2023-04-27T04:12:57;102042.16;;;3.58;68.46
38466;BME280;24244;51.950;5.902;2023-04-27T04:15:25;102046.69;;;3.55;68.18
38466;BME280;24244;51.950;5.902;2023-04-27T04:17:52;102052.91;;;3.54;68.03
38466;BME280;24244;51.950;5.902;2023-04-27T04:20:19;102053.75;;;3.55;68.42
38466;BME280;24244;51.950;5.902;2023-04-27T04:22:46;102059.84;;;3.55;68.28
38466;BME280;24244;51.950;5.902;2023-04-27T04:25:13;102051.84;;;3.57;68.39
38466;BME280;24244;51.950;5.902;2023-04-27T04:27:40;102052.69;;;3.58;68.39
38466;BME280;24244;51.950;5.902;2023-04-27T04:30:08;102046.59;;;3.57;68.15
38466;BME280;24244;51.950;5.902;2023-04-27T04:32:36;102049.22;;;3.57;68.34
38466;BME280;24244;51.950;5.902;2023-04-27T04:35:04;102045.53;;;3.60;68.18
38466;BME280;24244;51.950;5.902;2023-04-27T04:37:34;102050.44;;;3.64;68.21
38466;BME280;24244;51.950;5.902;2023-04-27T04:40:03;102047.72;;;3.66;68.04
38466;BME280;24244;51.950;5.902;2023-04-27T04:42:34;102053.09;;;3.64;68.32
38466;BME280;24244;51.950;5.902;2023-04-27T04:45:05;102058.25;;;3.66;68.50
38466;BME280;24244;51.950;5.902;2023-04-27T04:47:33;102059.09;;;3.66;68.16
38466;BME280;24244;51.950;5.902;2023-04-27T04:50:03;102059.81;;;3.68;68.61
38466;BME280;24244;51.950;5.902;2023-04-27T04:52:32;102056.94;;;3.71;68.27
38466;BME280;24244;51.950;5.902;2023-04-27T04:54:59;102061.25;;;3.72;68.43
38466;BME280;24244;51.950;5.902;2023-04-27T04:57:26;102063.69;;;3.75;68.70
38466;BME280;24244;51.950;5.902;2023-04-27T04:59:56;102075.06;;;3.76;68.73
38466;BME280;24244;51.950;5.902;2023-04-27T05:02:23;102072.41;;;3.76;68.54
38466;BME280;24244;51.950;5.902;2023-04-27T05:04:51;102076.84;;;3.75;68.43
38466;BME280;24244;51.950;5.902;2023-04-27T05:07:20;102067.16;;;3.76;69.11
38466;BME280;24244;51.950;5.902;2023-04-27T05:09:50;102071.34;;;3.78;69.12
38466;BME280;24244;51.950;5.902;2023-04-27T05:12:17;102071.97;;;3.82;68.98
38466;BME280;24244;51.950;5.902;2023-04-27T05:14:44;102063.84;;;3.85;69.22
38466;BME280;24244;51.950;5.902;2023-04-27T05:17:11;102070.69;;;3.87;68.96
38466;BME280;24244;51.950;5.902;2023-04-27T05:19:38;102063.41;;;3.91;69.36
38466;BME280;24244;51.950;5.902;2023-04-27T05:22:05;102059.50;;;3.97;69.33
38466;BME280;24244;51.950;5.902;2023-04-27T05:24:33;102067.06;;;4.01;69.39
38466;BME280;24244;51.950;5.902;2023-04-27T05:27:01;102064.91;;;4.06;69.02
38466;BME280;24244;51.950;5.902;2023-04-27T05:29:28;102063.75;;;4.10;69.34
38466;BME280;24244;51.950;5.902;2023-04-27T05:31:55;102062.56;;;4.14;68.94
38466;BME280;24244;51.950;5.902;2023-04-27T05:34:22;102064.03;;;4.18;69.01
38466;BME280;24244;51.950;5.902;2023-04-27T05:36:49;102057.59;;;4.22;69.11
38466;BME280;24244;51.950;5.902;2023-04-27T05:39:16;102061.66;;;4.26;69.08
38466;BME280;24244;51.950;5.902;2023-04-27T05:41:44;102061.34;;;4.31;68.87
38466;BME280;24244;51.950;5.902;2023-04-27T05:44:12;102064.47;;;4.36;68.98
38466;BME280;24244;51.950;5.902;2023-04-27T05:46:41;102073.81;;;4.40;68.97
38466;BME280;24244;51.950;5.902;2023-04-27T05:49:09;102072.75;;;4.43;69.18
38466;BME280;24244;51.950;5.902;2023-04-27T05:51:36;102075.84;;;4.48;68.95
38466;BME280;24244;51.950;5.902;2023-04-27T05:54:06;102079.97;;;4.52;68.97
38466;BME280;24244;51.950;5.902;2023-04-27T05:56:33;102074.34;;;4.56;68.83
38466;BME280;24244;51.950;5.902;2023-04-27T05:59:01;102078.28;;;4.62;69.04
38466;BME280;24244;51.950;5.902;2023-04-27T06:01:29;102082.28;;;4.67;68.82
38466;BME280;24244;51.950;5.902;2023-04-27T06:03:55;102078.34;;;4.73;68.61
38466;BME280;24244;51.950;5.902;2023-04-27T06:06:30;102083.88;;;4.81;68.84
38466;BME280;24244;51.950;5.902;2023-04-27T06:08:57;102079.09;;;4.86;68.82
38466;BME280;24244;51.950;5.902;2023-04-27T06:11:26;102081.03;;;4.95;68.81
38466;BME280;24244;51.950;5.902;2023-04-27T06:13:54;102075.53;;;5.09;68.65
38466;BME280;24244;51.950;5.902;2023-04-27T06:16:23;102070.75;;;5.26;68.92
38466;BME280;24244;51.950;5.902;2023-04-27T06:18:52;102067.88;;;5.51;68.67
38466;BME280;24244;51.950;5.902;2023-04-27T06:21:18;102080.06;;;5.74;68.20
38466;BME280;24244;51.950;5.902;2023-04-27T06:23:45;102077.66;;;5.94;67.60
38466;BME280;24244;51.950;5.902;2023-04-27T06:26:12;102073.50;;;6.12;67.47
38466;BME280;24244;51.950;5.902;2023-04-27T06:28:39;102069.00;;;6.35;67.12
38466;BME280;24244;51.950;5.902;2023-04-27T06:31:06;102072.38;;;6.57;66.50
38466;BME280;24244;51.950;5.902;2023-04-27T06:33:34;102065.16;;;6.80;66.11
38466;BME280;24244;51.950;5.902;2023-04-27T06:36:01;102061.59;;;6.91;65.96
38466;BME280;24244;51.950;5.902;2023-04-27T06:38:29;102061.38;;;7.03;66.05
38466;BME280;24244;51.950;5.902;2023-04-27T06:40:56;102059.63;;;7.14;65.69
38466;BME280;24244;51.950;5.902;2023-04-27T06:43:23;102065.34;;;7.19;65.49
38466;BME280;24244;51.950;5.902;2023-04-27T06:45:50;102069.56;;;7.21;65.76
38466;BME280;24244;51.950;5.902;2023-04-27T06:48:17;102060.66;;;7.22;65.72
38466;BME280;24244;51.950;5.902;2023-04-27T06:50:45;102067.47;;;7.25;65.56
38466;BME280;24244;51.950;5.902;2023-04-27T06:53:13;102071.09;;;7.24;65.86
38466;BME280;24244;51.950;5.902;2023-04-27T06:55:42;102069.31;;;7.24;66.11
38466;BME280;24244;51.950;5.902;2023-04-27T06:58:12;102064.69;;;7.26;65.91
38466;BME280;24244;51.950;5.902;2023-04-27T07:00:39;102063.59;;;7.29;66.01
38466;BME280;24244;51.950;5.902;2023-04-27T07:03:06;102067.78;;;7.31;65.91
38466;BME280;24244;51.950;5.902;2023-04-27T07:05:33;102057.22;;;7.31;65.65
38466;BME280;24244;51.950;5.902;2023-04-27T07:08:02;102054.28;;;7.34;65.87
38466;BME280;24244;51.950;5.902;2023-04-27T07:10:34;102060.28;;;7.36;65.81
38466;BME280;24244;51.950;5.902;2023-04-27T07:13:01;102057.66;;;7.36;65.88
38466;BME280;24244;51.950;5.902;2023-04-27T07:15:29;102059.31;;;7.37;65.69
38466;BME280;24244;51.950;5.902;2023-04-27T07:17:56;102066.28;;;7.38;66.03
38466;BME280;24244;51.950;5.902;2023-04-27T07:20:23;102068.78;;;7.40;65.93
38466;BME280;24244;51.950;5.902;2023-04-27T07:22:51;102072.97;;;7.42;66.07
38466;BME280;24244;51.950;5.902;2023-04-27T07:25:19;102070.22;;;7.44;65.89
38466;BME280;24244;51.950;5.902;2023-04-27T07:27:46;102077.72;;;7.48;65.76
38466;BME280;24244;51.950;5.902;2023-04-27T07:30:13;102084.44;;;7.53;65.36
38466;BME280;24244;51.950;5.902;2023-04-27T07:32:42;102074.41;;;7.56;65.58
38466;BME280;24244;51.950;5.902;2023-04-27T07:35:09;102083.91;;;7.59;65.40
38466;BME280;24244;51.950;5.902;2023-04-27T07:37:36;102088.91;;;7.62;65.60
38466;BME280;24244;51.950;5.902;2023-04-27T07:40:04;102083.38;;;7.65;65.31
38466;BME280;24244;51.950;5.902;2023-04-27T07:42:44;102088.38;;;7.68;65.21
38466;BME280;24244;51.950;5.902;2023-04-27T07:45:14;102086.44;;;7.70;64.88
38466;BME280;24244;51.950;5.902;2023-04-27T07:47:43;102081.84;;;7.72;65.41
38466;BME280;24244;51.950;5.902;2023-04-27T07:50:10;102078.66;;;7.78;65.30
38466;BME280;24244;51.950;5.902;2023-04-27T07:52:36;102081.72;;;7.83;65.15
38466;BME280;24244;51.950;5.902;2023-04-27T07:55:05;102079.38;;;7.90;65.06
38466;BME280;24244;51.950;5.902;2023-04-27T07:57:32;102078.69;;;7.97;64.86
38466;BME280;24244;51.950;5.902;2023-04-27T08:00:00;102080.09;;;8.01;64.90
38466;BME280;24244;51.950;5.902;2023-04-27T08:02:30;102076.06;;;8.07;64.89
38466;BME280;24244;51.950;5.902;2023-04-27T08:04:57;102073.84;;;8.12;64.40
38466;BME280;24244;51.950;5.902;2023-04-27T08:07:25;102075.94;;;8.18;64.42
38466;BME280;24244;51.950;5.902;2023-04-27T08:09:53;102074.56;;;8.23;64.34
38466;BME280;24244;51.950;5.902;2023-04-27T08:12:20;102073.28;;;8.27;64.11
38466;BME280;24244;51.950;5.902;2023-04-27T08:14:47;102075.72;;;8.31;63.90
38466;BME280;24244;51.950;5.902;2023-04-27T08:17:16;102078.91;;;8.34;63.90
38466;BME280;24244;51.950;5.902;2023-04-27T08:19:48;102074.00;;;8.39;63.29
38466;BME280;24244;51.950;5.902;2023-04-27T08:22:15;102079.88;;;8.43;63.28
38466;BME280;24244;51.950;5.902;2023-04-27T08:24:42;102069.56;;;8.49;62.91
38466;BME280;24244;51.950;5.902;2023-04-27T08:27:11;102072.75;;;8.53;63.04
38466;BME280;24244;51.950;5.902;2023-04-27T08:29:44;102075.97;;;8.56;62.83
38466;BME280;24244;51.950;5.902;2023-04-27T08:32:11;102077.34;;;8.60;62.89
38466;BME280;24244;51.950;5.902;2023-04-27T08:34:39;102072.63;;;8.64;62.99
38466;BME280;24244;51.950;5.902;2023-04-27T08:37:09;102074.84;;;8.69;62.67
38466;BME280;24244;51.950;5.902;2023-04-27T08:39:35;102068.97;;;8.75;62.63
38466;BME280;24244;51.950;5.902;2023-04-27T08:42:09;102078.03;;;8.82;62.29
38466;BME280;24244;51.950;5.902;2023-04-27T08:44:38;102083.44;;;8.90;61.99
38466;BME280;24244;51.950;5.902;2023-04-27T08:47:05;102074.91;;;8.96;62.08
38466;BME280;24244;51.950;5.902;2023-04-27T08:49:32;102066.25;;;9.03;61.78
38466;BME280;24244;51.950;5.902;2023-04-27T08:52:01;102057.69;;;9.10;61.96
38466;BME280;24244;51.950;5.902;2023-04-27T08:54:28;102057.16;;;9.16;61.60
38466;BME280;24244;51.950;5.902;2023-04-27T08:56:55;102057.22;;;9.24;61.71
38466;BME280;24244;51.950;5.902;2023-04-27T08:59:22;102060.16;;;9.30;61.34
38466;BME280;24244;51.950;5.902;2023-04-27T09:01:49;102068.38;;;9.37;61.46
38466;BME280;24244;51.950;5.902;2023-04-27T09:04:16;102057.84;;;9.45;60.92
38466;BME280;24244;51.950;5.902;2023-04-27T09:06:44;102056.28;;;9.52;60.83
38466;BME280;24244;51.950;5.902;2023-04-27T09:09:22;102056.69;;;9.57;60.58
38466;BME280;24244;51.950;5.902;2023-04-27T09:11:49;102050.91;;;9.62;60.56
38466;BME280;24244;51.950;5.902;2023-04-27T09:14:18;102056.78;;;9.65;60.60
38466;BME280;24244;51.950;5.902;2023-04-27T09:16:52;102057.16;;;9.70;60.41
38466;BME280;24244;51.950;5.902;2023-04-27T09:19:26;102052.22;;;9.75;60.40
38466;BME280;24244;51.950;5.902;2023-04-27T09:22:06;102053.31;;;9.82;60.24
38466;BME280;24244;51.950;5.902;2023-04-27T09:24:35;102052.69;;;9.89;60.31
38466;BME280;24244;51.950;5.902;2023-04-27T09:27:05;102049.44;;;9.95;60.09
38466;BME280;24244;51.950;5.902;2023-04-27T09:29:34;102050.81;;;9.99;59.66
38466;BME280;24244;51.950;5.902;2023-04-27T09:32:12;102040.56;;;10.04;59.06
38466;BME280;24244;51.950;5.902;2023-04-27T09:34:42;102036.31;;;10.11;59.23
38466;BME280;24244;51.950;5.902;2023-04-27T09:37:10;102043.72;;;10.17;59.28
38466;BME280;24244;51.950;5.902;2023-04-27T09:39:38;102042.31;;;10.23;59.14
38466;BME280;24244;51.950;5.902;2023-04-27T09:42:08;102035.53;;;10.28;59.39
38466;BME280;24244;51.950;5.902;2023-04-27T09:44:36;102026.94;;;10.34;59.38
38466;BME280;24244;51.950;5.902;2023-04-27T09:47:07;102021.69;;;10.42;58.47
38466;BME280;24244;51.950;5.902;2023-04-27T09:49:38;102031.72;;;10.48;58.66
38466;BME280;24244;51.950;5.902;2023-04-27T09:52:05;102029.13;;;10.56;58.62
38466;BME280;24244;51.950;5.902;2023-04-27T09:54:33;102025.47;;;10.57;57.96
38466;BME280;24244;51.950;5.902;2023-04-27T09:57:13;102031.00;;;10.64;58.07
38466;BME280;24244;51.950;5.902;2023-04-27T09:59:54;102038.84;;;10.74;57.93
38466;BME280;24244;51.950;5.902;2023-04-27T10:02:27;102023.09;;;10.80;57.82
38466;BME280;24244;51.950;5.902;2023-04-27T10:05:15;102028.81;;;10.85;57.75
38466;BME280;24244;51.950;5.902;2023-04-27T10:07:48;102029.84;;;10.92;57.32
38466;BME280;24244;51.950;5.902;2023-04-27T10:10:17;102029.38;;;10.97;56.75
38466;BME280;24244;51.950;5.902;2023-04-27T10:12:57;102024.09;;;11.05;56.82
38466;BME280;24244;51.950;5.902;2023-04-27T10:15:27;102007.50;;;11.11;56.73
38466;BME280;24244;51.950;5.902;2023-04-27T10:18:02;102006.72;;;11.19;56.54
38466;BME280;24244;51.950;5.902;2023-04-27T10:20:33;102014.19;;;11.23;56.33
38466;BME280;24244;51.950;5.902;2023-04-27T10:23:03;102020.88;;;11.27;56.19
38466;BME280;24244;51.950;5.902;2023-04-27T10:25:37;102024.88;;;11.31;55.43
38466;BME280;24244;51.950;5.902;2023-04-27T10:28:05;102020.94;;;11.35;55.53
38466;BME280;24244;51.950;5.902;2023-04-27T10:30:35;102019.28;;;11.43;55.42
38466;BME280;24244;51.950;5.902;2023-04-27T10:33:06;102026.63;;;11.49;55.35
38466;BME280;24244;51.950;5.902;2023-04-27T10:35:35;102013.66;;;11.54;54.92
38466;BME280;24244;51.950;5.902;2023-04-27T10:38:06;102013.84;;;11.60;54.89
38466;BME280;24244;51.950;5.902;2023-04-27T10:40:34;102017.03;;;11.64;53.95
38466;BME280;24244;51.950;5.902;2023-04-27T10:43:10;102015.69;;;11.68;54.21
38466;BME280;24244;51.950;5.902;2023-04-27T10:45:37;102007.19;;;11.72;54.41
38466;BME280;24244;51.950;5.902;2023-04-27T10:48:05;102008.44;;;11.78;54.80
38466;BME280;24244;51.950;5.902;2023-04-27T10:50:32;102006.09;;;11.83;54.29
38466;BME280;24244;51.950;5.902;2023-04-27T10:52:59;102002.94;;;11.88;53.89
38466;BME280;24244;51.950;5.902;2023-04-27T10:55:28;102001.63;;;11.92;53.97
38466;BME280;24244;51.950;5.902;2023-04-27T10:57:58;102001.13;;;11.96;53.91
38466;BME280;24244;51.950;5.902;2023-04-27T11:00:31;101995.13;;;12.02;54.24
38466;BME280;24244;51.950;5.902;2023-04-27T11:03:10;101994.66;;;12.07;53.95
38466;BME280;24244;51.950;5.902;2023-04-27T11:05:37;102001.31;;;12.11;53.49
38466;BME280;24244;51.950;5.902;2023-04-27T11:08:05;101997.97;;;12.17;53.34
38466;BME280;24244;51.950;5.902;2023-04-27T11:10:33;101997.50;;;12.22;52.84
38466;BME280;24244;51.950;5.902;2023-04-27T11:13:08;101999.66;;;12.26;53.20
38466;BME280;24244;51.950;5.902;2023-04-27T11:15:48;101993.16;;;12.29;52.86
38466;BME280;24244;51.950;5.902;2023-04-27T11:18:16;101998.13;;;12.32;52.47
38466;BME280;24244;51.950;5.902;2023-04-27T11:20:45;101988.00;;;12.35;52.57
38466;BME280;24244;51.950;5.902;2023-04-27T11:23:22;101982.47;;;12.45;52.84
38466;BME280;24244;51.950;5.902;2023-04-27T11:25:52;101969.97;;;12.53;52.82
38466;BME280;24244;51.950;5.902;2023-04-27T11:28:20;101977.28;;;12.60;52.47
38466;BME280;24244;51.950;5.902;2023-04-27T11:30:55;101968.59;;;12.66;52.03
38466;BME280;24244;51.950;5.902;2023-04-27T11:33:22;101962.94;;;12.69;52.42
38466;BME280;24244;51.950;5.902;2023-04-27T11:35:49;101963.06;;;12.75;52.15
38466;BME280;24244;51.950;5.902;2023-04-27T11:38:17;101956.22;;;12.81;52.45
38466;BME280;24244;51.950;5.902;2023-04-27T11:40:46;101959.38;;;12.84;51.81
38466;BME280;24244;51.950;5.902;2023-04-27T11:43:13;101949.34;;;12.86;51.37
38466;BME280;24244;51.950;5.902;2023-04-27T11:45:41;101943.53;;;12.91;51.72
38466;BME280;24244;51.950;5.902;2023-04-27T11:48:13;101943.00;;;12.95;51.45
38466;BME280;24244;51.950;5.902;2023-04-27T11:50:41;101939.00;;;13.00;51.45
38466;BME280;24244;51.950;5.902;2023-04-27T11:53:12;101935.47;;;13.07;51.74
38466;BME280;24244;51.950;5.902;2023-04-27T11:55:38;101937.25;;;13.15;51.15
38466;BME280;24244;51.950;5.902;2023-04-27T11:58:12;101941.56;;;13.24;51.12
38466;BME280;24244;51.950;5.902;2023-04-27T12:00:39;101940.84;;;13.30;51.33
38466;BME280;24244;51.950;5.902;2023-04-27T12:03:07;101935.31;;;13.40;51.03
38466;BME280;24244;51.950;5.902;2023-04-27T12:05:46;101939.59;;;13.49;51.07
38466;BME280;24244;51.950;5.902;2023-04-27T12:08:14;101930.03;;;13.54;50.99
38466;BME280;24244;51.950;5.902;2023-04-27T12:10:41;101941.50;;;13.63;51.14
38466;BME280;24244;51.950;5.902;2023-04-27T12:13:09;101932.97;;;13.67;51.20
38466;BME280;24244;51.950;5.902;2023-04-27T12:15:35;101928.09;;;13.71;50.90
38466;BME280;24244;51.950;5.902;2023-04-27T12:18:02;101928.56;;;13.75;50.65
38466;BME280;24244;51.950;5.902;2023-04-27T12:20:29;101920.19;;;13.78;50.62
38466;BME280;24244;51.950;5.902;2023-04-27T12:22:57;101918.16;;;13.80;50.19
38466;BME280;24244;51.950;5.902;2023-04-27T12:25:27;101912.47;;;13.83;49.75
38466;BME280;24244;51.950;5.902;2023-04-27T12:27:53;101921.78;;;13.87;50.31
38466;BME280;24244;51.950;5.902;2023-04-27T12:30:21;101924.09;;;13.90;49.53
38466;BME280;24244;51.950;5.902;2023-04-27T12:32:49;101922.38;;;13.97;49.96
38466;BME280;24244;51.950;5.902;2023-04-27T12:35:16;101918.81;;;14.04;49.49
38466;BME280;24244;51.950;5.902;2023-04-27T12:37:43;101908.78;;;14.06;48.30
38466;BME280;24244;51.950;5.902;2023-04-27T12:40:12;101913.91;;;14.08;48.72
38466;BME280;24244;51.950;5.902;2023-04-27T12:42:39;101911.91;;;14.10;48.70
38466;BME280;24244;51.950;5.902;2023-04-27T12:45:07;101908.88;;;14.13;48.50
38466;BME280;24244;51.950;5.902;2023-04-27T12:47:36;101908.50;;;14.16;48.51
38466;BME280;24244;51.950;5.902;2023-04-27T12:50:25;101900.47;;;14.16;48.49
38466;BME280;24244;51.950;5.902;2023-04-27T12:52:52;101904.91;;;14.24;48.61
38466;BME280;24244;51.950;5.902;2023-04-27T12:55:21;101896.53;;;14.27;48.59
38466;BME280;24244;51.950;5.902;2023-04-27T12:57:59;101895.81;;;14.33;48.50
38466;BME280;24244;51.950;5.902;2023-04-27T13:00:26;101896.09;;;14.38;48.20
38466;BME280;24244;51.950;5.902;2023-04-27T13:02:53;101893.53;;;14.44;47.81
38466;BME280;24244;51.950;5.902;2023-04-27T13:05:20;101893.81;;;14.49;47.86